Time;durP1;ratioP1;P1;durP2;ratioP2;P2;SDS_P1;SDS_P2;PMS_P1;PMS_P2;Temp;Humidity;BMP_temperature;BMP_pressure;BME280_temperature;BME280_humidity;BME280_pressure;Samples;Min_cycle;Max_cycle;Signal;HPM_P1;HPM_P2
2021/08/13 00:02:53;;;;;;;0.00;0.00;;;;;;;;;;10476769;28;20106;-26
2021/08/13 00:07:57;;;;;;;0.00;0.00;;;;;;;;;;10477752;28;20045;-26
2021/08/13 00:13:00;;;;;;;0.00;0.00;;;;;;;;;;10474101;28;20045;-26
2021/08/13 00:18:04;;;;;;;0.00;0.00;;;;;;;;;;10478197;28;20040;-26
2021/08/13 00:23:07;;;;;;;1.00;0.00;;;;;;;;;;10476752;28;20048;-25
2021/08/13 00:28:11;;;;;;;0.00;0.00;;;;;;;;;;10475606;28;20052;-25
2021/08/13 00:33:15;;;;;;;0.00;0.00;;;;;;;;;;10477375;28;20040;-25
2021/08/13 00:38:18;;;;;;;0.30;0.00;;;;;;;;;;10478453;28;20496;-25
2021/08/13 00:43:22;;;;;;;0.00;0.00;;;;;;;;;;10499186;28;20208;-25
2021/08/13 00:48:26;;;;;;;0.00;0.00;;;;;;;;;;10466458;28;20056;-24
2021/08/13 00:53:34;;;;;;;0.00;0.00;;;;;;;;;;10469268;28;20131;-25
2021/08/13 00:58:38;;;;;;;0.00;0.00;;;;;;;;;;10459406;28;20497;-25
2021/08/13 01:04:03;;;;;;;0.00;0.00;;;;;;;;;;10458865;28;20118;-25
2021/08/13 01:09:07;;;;;;;0.00;0.00;;;;;;;;;;10452346;28;20067;-25
2021/08/13 01:14:15;;;;;;;0.00;0.00;;;;;;;;;;10462766;28;20044;-25
2021/08/13 01:19:26;;;;;;;0.05;0.03;;;;;;;;;;10459723;28;20048;-24
2021/08/13 01:24:31;;;;;;;0.00;0.00;;;;;;;;;;10458031;28;20036;-25
2021/08/13 01:29:39;;;;;;;0.00;0.00;;;;;;;;;;10475019;28;20051;-25
2021/08/13 01:34:45;;;;;;;0.00;0.00;;;;;;;;;;10455035;28;20110;-25
2021/08/13 01:39:51;;;;;;;0.00;0.00;;;;;;;;;;10466605;28;20071;-25
2021/08/13 01:44:57;;;;;;;0.00;0.00;;;;;;;;;;10489985;28;20048;-26
2021/08/13 01:50:03;;;;;;;0.00;0.00;;;;;;;;;;10463004;28;20631;-25
2021/08/13 01:55:07;;;;;;;0.00;0.00;;;;;;;;;;10459578;28;20171;-27
2021/08/13 02:00:11;;;;;;;0.00;0.00;;;;;;;;;;10467175;28;20375;-25
2021/08/13 02:05:19;;;;;;;0.00;0.00;;;;;;;;;;10473496;28;20159;-26
2021/08/13 02:10:23;;;;;;;0.00;0.00;;;;;;;;;;10460413;28;20482;-26
2021/08/13 02:15:25;;;;;;;0.05;0.05;;;;;;;;;;10461060;28;20045;-25
2021/08/13 02:20:36;;;;;;;0.00;0.00;;;;;;;;;;10459647;28;20044;-26
2021/08/13 02:25:38;;;;;;;0.00;0.00;;;;;;;;;;10462918;28;20045;-25
2021/08/13 02:30:46;;;;;;;0.00;0.00;;;;;;;;;;10464936;28;20045;-25
2021/08/13 02:35:55;;;;;;;0.00;0.00;;;;;;;;;;10462535;28;20106;-26
2021/08/13 02:40:59;;;;;;;0.08;0.00;;;;;;;;;;10464516;28;20053;-26
2021/08/13 02:46:05;;;;;;;0.00;0.00;;;;;;;;;;10473535;28;20047;-26
2021/08/13 02:51:15;;;;;;;0.00;0.00;;;;;;;;;;10469602;28;20052;-24
2021/08/13 02:56:20;;;;;;;0.00;0.00;;;;;;;;;;10471012;28;20052;-26
2021/08/13 03:01:24;;;;;;;0.10;0.10;;;;;;;;;;10476996;28;20051;-25
2021/08/13 03:06:32;;;;;;;0.00;0.00;;;;;;;;;;10465978;28;20055;-25
2021/08/13 03:11:39;;;;;;;0.00;0.00;;;;;;;;;;10473326;28;20391;-25
2021/08/13 03:16:44;;;;;;;0.00;0.00;;;;;;;;;;10470169;28;20068;-25
2021/08/13 03:21:49;;;;;;;0.00;0.00;;;;;;;;;;10470499;28;20045;-25
2021/08/13 03:26:52;;;;;;;0.00;0.00;;;;;;;;;;10460494;28;20519;-25
2021/08/13 03:31:57;;;;;;;0.20;0.10;;;;;;;;;;10484052;28;20044;-25
2021/08/13 03:37:03;;;;;;;0.00;0.00;;;;;;;;;;10470541;28;20045;-25
2021/08/13 03:42:10;;;;;;;0.00;0.00;;;;;;;;;;10459872;28;20170;-25
2021/08/13 03:47:13;;;;;;;0.10;0.05;;;;;;;;;;10451197;28;20052;-25
2021/08/13 03:52:17;;;;;;;0.00;0.00;;;;;;;;;;10468332;28;20063;-26
2021/08/13 03:57:21;;;;;;;0.00;0.00;;;;;;;;;;10456421;28;20453;-26
2021/08/13 04:02:25;;;;;;;0.00;0.00;;;;;;;;;;10457000;28;20041;-25
2021/08/13 04:07:29;;;;;;;0.00;0.00;;;;;;;;;;10455595;28;20059;-24
2021/08/13 04:12:32;;;;;;;0.00;0.00;;;;;;;;;;10458863;28;20056;-24
2021/08/13 04:17:48;;;;;;;0.10;0.00;;;;;;;;;;10449388;28;20095;-24
2021/08/13 04:22:53;;;;;;;0.00;0.00;;;;;;;;;;10452329;28;20159;-23
2021/08/13 04:27:57;;;;;;;0.00;0.00;;;;;;;;;;10453346;28;20138;-24
2021/08/13 04:33:06;;;;;;;0.00;0.00;;;;;;;;;;10455244;28;20048;-24
2021/08/13 04:38:11;;;;;;;0.00;0.00;;;;;;;;;;10452467;28;20225;-25
2021/08/13 04:43:14;;;;;;;0.10;0.10;;;;;;;;;;10449795;28;20163;-25
2021/08/13 04:48:18;;;;;;;0.22;0.08;;;;;;;;;;10449731;28;20049;-25
2021/08/13 04:53:23;;;;;;;0.00;0.00;;;;;;;;;;10455378;28;20056;-26
2021/08/13 04:58:26;;;;;;;0.00;0.00;;;;;;;;;;10456534;28;20194;-25
2021/08/13 05:03:29;;;;;;;0.10;0.10;;;;;;;;;;10449859;28;20067;-25
2021/08/13 05:08:33;;;;;;;0.10;0.05;;;;;;;;;;10446046;28;20052;-25
2021/08/13 05:13:36;;;;;;;0.00;0.00;;;;;;;;;;10450348;28;20052;-27
2021/08/13 05:18:39;;;;;;;0.20;0.10;;;;;;;;;;10444864;28;20046;-25
2021/08/13 05:23:44;;;;;;;0.08;0.00;;;;;;;;;;10443151;28;20049;-25
2021/08/13 05:28:47;;;;;;;0.08;0.03;;;;;;;;;;10457034;28;20055;-25
2021/08/13 05:33:55;;;;;;;0.00;0.00;;;;;;;;;;10450131;28;20036;-26
2021/08/13 05:39:00;;;;;;;0.10;0.10;;;;;;;;;;10455848;28;20052;-26
2021/08/13 05:44:03;;;;;;;0.00;0.00;;;;;;;;;;10453030;28;20048;-26
2021/08/13 05:49:06;;;;;;;0.00;0.00;;;;;;;;;;10453431;28;20052;-25
2021/08/13 05:54:10;;;;;;;0.08;0.00;;;;;;;;;;10449198;28;20105;-27
2021/08/13 05:59:16;;;;;;;0.00;0.00;;;;;;;;;;10456966;28;20080;-25
2021/08/13 06:04:19;;;;;;;0.00;0.00;;;;;;;;;;10448834;28;20056;-26
2021/08/13 06:09:23;;;;;;;0.65;0.00;;;;;;;;;;10447078;28;20230;-26
2021/08/13 06:14:26;;;;;;;0.00;0.00;;;;;;;;;;10462685;28;20056;-26
2021/08/13 06:19:29;;;;;;;0.00;0.00;;;;;;;;;;10468324;28;20580;-26
2021/08/13 06:24:33;;;;;;;0.00;0.00;;;;;;;;;;10456432;28;20496;-26
2021/08/13 06:29:41;;;;;;;0.00;0.00;;;;;;;;;;10458783;28;20519;-26
2021/08/13 06:34:44;;;;;;;0.00;0.00;;;;;;;;;;10467851;28;20068;-26
2021/08/13 06:39:49;;;;;;;0.00;0.00;;;;;;;;;;10455703;28;20048;-26
2021/08/13 06:44:54;;;;;;;0.00;0.00;;;;;;;;;;10454624;28;20371;-27
2021/08/13 06:49:59;;;;;;;0.08;0.08;;;;;;;;;;10455440;28;20054;-26
2021/08/13 06:55:04;;;;;;;0.00;0.00;;;;;;;;;;10448334;28;20065;-26
2021/08/13 07:00:08;;;;;;;0.05;0.00;;;;;;;;;;10482711;28;20052;-26
2021/08/13 07:05:12;;;;;;;0.25;0.00;;;;;;;;;;10451937;28;20728;-26
2021/08/13 07:10:17;;;;;;;0.17;0.05;;;;;;;;;;10455771;28;20055;-25
2021/08/13 07:15:20;;;;;;;0.00;0.00;;;;;;;;;;10451010;28;20044;-27
2021/08/13 07:20:24;;;;;;;0.00;0.00;;;;;;;;;;10451574;28;20056;-26
2021/08/13 07:25:28;;;;;;;0.32;0.00;;;;;;;;;;10458424;28;20118;-27
2021/08/13 07:30:32;;;;;;;0.00;0.00;;;;;;;;;;10463469;28;20106;-26
2021/08/13 07:35:37;;;;;;;0.00;0.00;;;;;;;;;;10466727;28;20370;-25
2021/08/13 07:40:43;;;;;;;0.80;0.08;;;;;;;;;;10457368;28;20710;-26
2021/08/13 07:45:46;;;;;;;0.00;0.00;;;;;;;;;;10458763;28;20102;-30
2021/08/13 07:50:49;;;;;;;0.00;0.00;;;;;;;;;;10453068;28;20059;-26
2021/08/13 07:55:53;;;;;;;0.08;0.08;;;;;;;;;;10451397;28;20052;-25
2021/08/13 08:00:58;;;;;;;0.00;0.00;;;;;;;;;;10458724;28;20056;-25
2021/08/13 08:06:01;;;;;;;0.00;0.00;;;;;;;;;;10464979;28;20041;-26
2021/08/13 08:11:05;;;;;;;0.00;0.00;;;;;;;;;;10466835;28;20083;-25
2021/08/13 08:16:09;;;;;;;0.00;0.00;;;;;;;;;;10463263;28;20114;-25
2021/08/13 08:21:11;;;;;;;0.00;0.00;;;;;;;;;;10464511;28;20085;-26
2021/08/13 08:26:16;;;;;;;0.05;0.00;;;;;;;;;;10464198;28;20094;-25
2021/08/13 08:31:20;;;;;;;0.10;0.00;;;;;;;;;;10465047;28;20080;-26
2021/08/13 08:36:23;;;;;;;0.00;0.00;;;;;;;;;;10463234;28;20044;-25
2021/08/13 08:41:27;;;;;;;0.00;0.00;;;;;;;;;;10462487;28;20048;-26
2021/08/13 08:46:31;;;;;;;0.00;0.00;;;;;;;;;;10457413;28;20130;-26
2021/08/13 08:51:37;;;;;;;0.00;0.00;;;;;;;;;;10462066;28;20056;-25
2021/08/13 08:56:42;;;;;;;0.10;0.00;;;;;;;;;;10467804;28;20052;-25
2021/08/13 09:01:45;;;;;;;0.10;0.00;;;;;;;;;;10479920;28;20139;-25
2021/08/13 09:06:48;;;;;;;0.00;0.00;;;;;;;;;;10472930;28;20507;-25
2021/08/13 09:11:55;;;;;;;0.10;0.00;;;;;;;;;;10478831;28;20056;-24
2021/08/13 09:17:01;;;;;;;0.05;0.00;;;;;;;;;;10472009;28;20072;-24
2021/08/13 09:22:07;;;;;;;0.00;0.00;;;;;;;;;;10476877;28;20076;-25
2021/08/13 09:27:18;;;;;;;0.00;0.00;;;;;;;;;;10474859;28;20056;-25
2021/08/13 09:32:25;;;;;;;0.00;0.00;;;;;;;;;;10461818;28;20044;-25
2021/08/13 09:37:30;;;;;;;0.00;0.00;;;;;;;;;;10465336;28;20051;-26
2021/08/13 09:42:36;;;;;;;0.00;0.00;;;;;;;;;;10478350;28;20047;-25
2021/08/13 09:47:42;;;;;;;0.00;0.00;;;;;;;;;;10474977;28;20051;-25
2021/08/13 09:53:01;;;;;;;0.00;0.00;;;;;;;;;;10472625;28;20068;-26
2021/08/13 09:58:08;;;;;;;0.00;0.00;;;;;;;;;;10501882;28;20044;-25
2021/08/13 10:03:12;;;;;;;0.00;0.00;;;;;;;;;;10489129;28;20041;-24
2021/08/13 10:08:15;;;;;;;0.00;0.00;;;;;;;;;;10501646;28;20068;-25
2021/08/13 10:13:21;;;;;;;0.00;0.00;;;;;;;;;;10486825;28;20114;-25
2021/08/13 10:18:30;;;;;;;0.00;0.00;;;;;;;;;;10485340;28;20776;-25
2021/08/13 10:23:38;;;;;;;0.00;0.00;;;;;;;;;;10483317;28;20075;-25
2021/08/13 10:28:43;;;;;;;0.00;0.00;;;;;;;;;;10486035;28;20143;-25
2021/08/13 10:33:53;;;;;;;0.03;0.00;;;;;;;;;;10486051;28;20044;-25
2021/08/13 10:38:56;;;;;;;0.00;0.00;;;;;;;;;;10492018;28;20055;-25
2021/08/13 10:44:01;;;;;;;0.00;0.00;;;;;;;;;;10484453;28;20048;-25
2021/08/13 10:49:09;;;;;;;0.00;0.00;;;;;;;;;;10488441;28;20049;-25
2021/08/13 10:54:14;;;;;;;0.00;0.00;;;;;;;;;;10478516;28;20147;-26
2021/08/13 10:59:36;;;;;;;0.00;0.00;;;;;;;;;;10492486;28;20723;-26
2021/08/13 11:04:41;;;;;;;0.00;0.00;;;;;;;;;;10478885;28;20124;-25
2021/08/13 11:09:44;;;;;;;0.00;0.00;;;;;;;;;;10492747;28;20052;-26
2021/08/13 11:14:48;;;;;;;0.00;0.00;;;;;;;;;;10472123;28;20040;-25
2021/08/13 11:19:59;;;;;;;0.00;0.00;;;;;;;;;;10478802;28;20052;-25
2021/08/13 11:25:09;;;;;;;0.10;0.00;;;;;;;;;;10469285;28;20044;-25
2021/08/13 11:30:26;;;;;;;0.00;0.00;;;;;;;;;;10462731;28;20052;-25
2021/08/13 11:35:38;;;;;;;0.00;0.00;;;;;;;;;;10475549;28;20047;-25
2021/08/13 11:40:43;;;;;;;0.00;0.00;;;;;;;;;;10467747;28;20132;-25
2021/08/13 11:45:47;;;;;;;0.00;0.00;;;;;;;;;;10460954;28;20884;-25
2021/08/13 11:51:05;;;;;;;0.00;0.00;;;;;;;;;;10464856;28;20190;-25
2021/08/13 11:56:08;;;;;;;0.00;0.00;;;;;;;;;;10476336;28;20716;-25
2021/08/13 12:01:12;;;;;;;0.00;0.00;;;;;;;;;;10475635;28;20424;-26
2021/08/13 12:06:17;;;;;;;0.00;0.00;;;;;;;;;;10460672;28;20040;-25
2021/08/13 12:11:28;;;;;;;0.00;0.00;;;;;;;;;;10462277;28;20056;-25
2021/08/13 12:16:33;;;;;;;0.00;0.00;;;;;;;;;;10470419;28;20045;-25
2021/08/13 12:21:52;;;;;;;0.00;0.00;;;;;;;;;;10461811;28;20067;-25
2021/08/13 12:27:07;;;;;;;0.00;0.00;;;;;;;;;;10477744;28;20045;-25
2021/08/13 12:32:12;;;;;;;0.00;0.00;;;;;;;;;;10477671;28;20055;-25
2021/08/13 12:37:16;;;;;;;0.00;0.00;;;;;;;;;;10476274;28;20505;-26
2021/08/13 12:42:24;;;;;;;0.00;0.00;;;;;;;;;;10497891;28;20596;-26
2021/08/13 12:47:28;;;;;;;0.00;0.00;;;;;;;;;;10459522;28;20675;-25
2021/08/13 12:52:35;;;;;;;0.00;0.00;;;;;;;;;;10457648;28;20569;-25
2021/08/13 12:57:38;;;;;;;0.00;0.00;;;;;;;;;;10459687;28;20498;-27
2021/08/13 13:02:45;;;;;;;0.00;0.00;;;;;;;;;;10458535;28;20044;-26
2021/08/13 13:07:58;;;;;;;0.10;0.00;;;;;;;;;;10425520;28;20048;-25
2021/08/13 13:13:07;;;;;;;0.00;0.00;;;;;;;;;;10420817;28;20048;-25
2021/08/13 13:18:10;;;;;;;0.08;0.00;;;;;;;;;;10416979;28;20045;-26
2021/08/13 13:23:19;;;;;;;0.00;0.00;;;;;;;;;;10418181;28;20053;-27
2021/08/13 13:28:45;;;;;;;0.00;0.00;;;;;;;;;;10416135;28;20060;-26
2021/08/13 13:34:21;;;;;;;0.10;0.00;;;;;;;;;;10431165;28;20501;-26
2021/08/13 13:39:25;;;;;;;0.00;0.00;;;;;;;;;;10432662;28;20048;-27
2021/08/13 13:44:28;;;;;;;0.00;0.00;;;;;;;;;;10434402;28;20149;-27
2021/08/13 13:49:39;;;;;;;0.03;0.00;;;;;;;;;;10417285;28;20103;-26
2021/08/13 13:54:43;;;;;;;0.00;0.00;;;;;;;;;;10416312;28;20041;-26
2021/08/13 13:59:46;;;;;;;0.05;0.00;;;;;;;;;;10416990;28;20041;-26
2021/08/13 14:04:50;;;;;;;0.00;0.00;;;;;;;;;;10414105;28;20057;-28
2021/08/13 14:09:55;;;;;;;0.05;0.00;;;;;;;;;;10414107;28;20049;-27
2021/08/13 14:14:57;;;;;;;0.00;0.00;;;;;;;;;;10417501;28;20477;-27
2021/08/13 14:20:00;;;;;;;0.00;0.00;;;;;;;;;;10434247;28;20040;-26
2021/08/13 14:25:07;;;;;;;0.00;0.00;;;;;;;;;;10415765;28;20406;-27
2021/08/13 14:30:10;;;;;;;0.00;0.00;;;;;;;;;;10418527;28;20115;-27
2021/08/13 14:35:13;;;;;;;0.00;0.00;;;;;;;;;;10417063;28;20048;-26
2021/08/13 14:40:18;;;;;;;0.00;0.00;;;;;;;;;;10422759;28;20434;-27
2021/08/13 14:45:21;;;;;;;0.00;0.00;;;;;;;;;;10441362;28;20044;-26
2021/08/13 14:50:24;;;;;;;0.00;0.00;;;;;;;;;;10423027;28;20045;-26
2021/08/13 14:55:32;;;;;;;0.00;0.00;;;;;;;;;;10421857;28;20533;-26
2021/08/13 15:00:35;;;;;;;0.00;0.00;;;;;;;;;;10423976;28;20490;-26
2021/08/13 15:05:40;;;;;;;0.25;0.00;;;;;;;;;;10423424;28;20130;-26
2021/08/13 15:10:46;;;;;;;0.00;0.00;;;;;;;;;;10440076;28;20060;-25
2021/08/13 15:15:50;;;;;;;0.00;0.00;;;;;;;;;;10421421;28;20060;-25
2021/08/13 15:20:53;;;;;;;0.00;0.00;;;;;;;;;;10425333;28;20379;-26
2021/08/13 15:25:59;;;;;;;0.00;0.00;;;;;;;;;;10436772;28;20053;-26
2021/08/13 15:31:04;;;;;;;0.00;0.00;;;;;;;;;;10431915;28;20044;-25
2021/08/13 15:36:07;;;;;;;0.00;0.00;;;;;;;;;;10430418;28;20102;-26
2021/08/13 15:41:11;;;;;;;0.00;0.00;;;;;;;;;;10439994;28;20478;-25
2021/08/13 15:46:14;;;;;;;0.00;0.00;;;;;;;;;;10446546;28;20041;-25
2021/08/13 15:51:17;;;;;;;0.10;0.00;;;;;;;;;;10440090;28;20043;-26
2021/08/13 15:56:21;;;;;;;0.00;0.00;;;;;;;;;;10446893;28;20060;-25
2021/08/13 16:01:24;;;;;;;0.00;0.00;;;;;;;;;;10450125;28;20048;-26
2021/08/13 16:06:28;;;;;;;0.00;0.00;;;;;;;;;;10443648;28;20059;-25
2021/08/13 16:11:32;;;;;;;0.00;0.00;;;;;;;;;;10454564;28;20048;-25
2021/08/13 16:16:35;;;;;;;0.00;0.00;;;;;;;;;;10451955;28;20040;-27
2021/08/13 16:21:41;;;;;;;0.00;0.00;;;;;;;;;;10458343;28;20044;-27
2021/08/13 16:26:46;;;;;;;0.00;0.00;;;;;;;;;;10451900;28;20041;-26
2021/08/13 16:31:48;;;;;;;0.00;0.00;;;;;;;;;;10441370;28;20060;-27
2021/08/13 16:36:51;;;;;;;0.00;0.00;;;;;;;;;;10436950;28;20055;-27
2021/08/13 16:41:55;;;;;;;0.00;0.00;;;;;;;;;;10435419;28;20776;-28
2021/08/13 16:46:58;;;;;;;0.00;0.00;;;;;;;;;;10437357;28;20196;-27
2021/08/13 16:52:00;;;;;;;0.00;0.00;;;;;;;;;;10429042;28;20044;-26
2021/08/13 16:57:04;;;;;;;0.17;0.00;;;;;;;;;;10424812;28;20071;-26
2021/08/13 17:02:07;;;;;;;0.00;0.00;;;;;;;;;;10425066;28;20049;-26
2021/08/13 17:07:10;;;;;;;0.00;0.00;;;;;;;;;;10423164;28;20041;-26
2021/08/13 17:12:14;;;;;;;0.00;0.00;;;;;;;;;;10424290;28;20057;-26
2021/08/13 17:17:17;;;;;;;0.00;0.00;;;;;;;;;;10424246;28;20057;-26
2021/08/13 17:22:20;;;;;;;0.00;0.00;;;;;;;;;;10433798;28;20045;-28
2021/08/13 17:27:24;;;;;;;0.30;0.00;;;;;;;;;;10436081;28;20764;-26
2021/08/13 17:32:26;;;;;;;0.00;0.00;;;;;;;;;;10436490;28;20045;-26
2021/08/13 17:37:29;;;;;;;0.10;0.00;;;;;;;;;;10436436;28;20052;-26
2021/08/13 17:42:33;;;;;;;0.00;0.00;;;;;;;;;;10432214;28;20049;-26
2021/08/13 17:47:36;;;;;;;0.10;0.00;;;;;;;;;;10433420;28;20061;-26
2021/08/13 17:52:38;;;;;;;0.00;0.00;;;;;;;;;;10433653;28;20521;-26
2021/08/13 17:57:44;;;;;;;0.00;0.00;;;;;;;;;;10417958;28;20171;-27
2021/08/13 18:02:46;;;;;;;0.00;0.00;;;;;;;;;;10435557;28;20049;-26
2021/08/13 18:07:51;;;;;;;0.00;0.00;;;;;;;;;;10435666;28;20136;-27
2021/08/13 18:12:56;;;;;;;0.00;0.00;;;;;;;;;;10442751;28;20112;-27
2021/08/13 18:17:58;;;;;;;0.00;0.00;;;;;;;;;;10449734;28;20067;-26
2021/08/13 18:23:01;;;;;;;0.00;0.00;;;;;;;;;;10449572;28;20036;-26
2021/08/13 18:28:05;;;;;;;0.10;0.00;;;;;;;;;;10455674;28;20059;-26
2021/08/13 18:33:08;;;;;;;0.00;0.00;;;;;;;;;;10443441;28;20393;-27
2021/08/13 18:38:11;;;;;;;0.00;0.00;;;;;;;;;;10442193;28;20052;-27
2021/08/13 18:43:16;;;;;;;0.00;0.00;;;;;;;;;;10441276;28;20049;-27
2021/08/13 18:48:19;;;;;;;0.00;0.00;;;;;;;;;;10442641;28;20080;-27
2021/08/13 18:53:22;;;;;;;0.00;0.00;;;;;;;;;;10441128;28;20075;-28
2021/08/13 18:58:27;;;;;;;0.00;0.00;;;;;;;;;;10440284;28;20033;-27
2021/08/13 19:03:29;;;;;;;0.00;0.00;;;;;;;;;;10437800;28;20155;-28
2021/08/13 19:08:32;;;;;;;0.00;0.00;;;;;;;;;;10439558;28;20103;-29
2021/08/13 19:13:37;;;;;;;0.00;0.00;;;;;;;;;;10440448;28;20072;-27
2021/08/13 19:18:41;;;;;;;0.00;0.00;;;;;;;;;;10439693;28;20045;-28
2021/08/13 19:23:43;;;;;;;0.00;0.00;;;;;;;;;;10438526;28;20041;-29
2021/08/13 19:28:48;;;;;;;0.00;0.00;;;;;;;;;;10437881;28;20414;-28
2021/08/13 19:33:51;;;;;;;0.00;0.00;;;;;;;;;;10438797;28;20053;-28
2021/08/13 19:38:53;;;;;;;0.00;0.00;;;;;;;;;;10437733;28;21264;-28
2021/08/13 19:43:58;;;;;;;0.00;0.00;;;;;;;;;;10436182;28;20052;-27
2021/08/13 19:49:00;;;;;;;0.00;0.00;;;;;;;;;;10436696;28;20509;-28
2021/08/13 19:54:04;;;;;;;0.00;0.00;;;;;;;;;;10435086;28;20056;-28
2021/08/13 19:59:08;;;;;;;0.17;0.00;;;;;;;;;;10433294;28;20037;-29
2021/08/13 20:04:11;;;;;;;0.00;0.00;;;;;;;;;;10432661;28;20040;-27
2021/08/13 20:09:14;;;;;;;0.00;0.00;;;;;;;;;;10414849;28;20168;-27
2021/08/13 20:14:18;;;;;;;0.20;0.00;;;;;;;;;;10435216;28;20044;-27
2021/08/13 20:19:21;;;;;;;0.17;0.00;;;;;;;;;;10434536;28;20120;-29
2021/08/13 20:24:24;;;;;;;0.00;0.00;;;;;;;;;;10416102;28;20055;-28
2021/08/13 20:29:28;;;;;;;0.00;0.00;;;;;;;;;;10435027;28;20044;-28
2021/08/13 20:34:31;;;;;;;0.00;0.00;;;;;;;;;;10435802;28;20049;-28
2021/08/13 20:39:35;;;;;;;0.00;0.00;;;;;;;;;;10434730;28;20051;-28
2021/08/13 20:44:39;;;;;;;0.00;0.00;;;;;;;;;;10434561;28;20041;-27
2021/08/13 20:49:42;;;;;;;0.00;0.00;;;;;;;;;;10434629;28;20056;-28
2021/08/13 20:54:45;;;;;;;0.00;0.00;;;;;;;;;;10429138;28;20525;-28
2021/08/13 20:59:50;;;;;;;0.05;0.00;;;;;;;;;;10434226;28;20045;-28
2021/08/13 21:04:53;;;;;;;0.00;0.00;;;;;;;;;;10430347;28;20056;-28
2021/08/13 21:09:56;;;;;;;0.00;0.00;;;;;;;;;;10433040;28;20167;-26
2021/08/13 21:15:00;;;;;;;0.00;0.00;;;;;;;;;;10432001;28;20041;-27
2021/08/13 21:20:03;;;;;;;0.00;0.00;;;;;;;;;;10430260;28;20115;-30
2021/08/13 21:25:06;;;;;;;0.00;0.00;;;;;;;;;;10431494;28;20047;-28
2021/08/13 21:30:12;;;;;;;0.00;0.00;;;;;;;;;;10434019;28;20051;-29
2021/08/13 21:35:14;;;;;;;0.00;0.00;;;;;;;;;;10433159;28;20041;-27
2021/08/13 21:40:17;;;;;;;0.00;0.00;;;;;;;;;;10431372;28;20037;-28
2021/08/13 21:45:21;;;;;;;0.00;0.00;;;;;;;;;;10417521;28;20045;-28
2021/08/13 21:50:24;;;;;;;0.00;0.00;;;;;;;;;;10442071;28;20060;-28
2021/08/13 21:55:26;;;;;;;0.00;0.00;;;;;;;;;;10441547;28;20055;-27
2021/08/13 22:00:30;;;;;;;0.00;0.00;;;;;;;;;;10441699;28;20251;-28
2021/08/13 22:05:33;;;;;;;0.00;0.00;;;;;;;;;;10440996;28;20055;-28
2021/08/13 22:10:36;;;;;;;0.00;0.00;;;;;;;;;;10441396;28;20056;-27
2021/08/13 22:15:40;;;;;;;0.00;0.00;;;;;;;;;;10440934;28;20052;-28
2021/08/13 22:20:43;;;;;;;0.00;0.00;;;;;;;;;;10441352;28;20049;-28
2021/08/13 22:25:46;;;;;;;0.00;0.00;;;;;;;;;;10440474;28;20052;-27
2021/08/13 22:30:50;;;;;;;0.00;0.00;;;;;;;;;;10442952;28;20033;-27
2021/08/13 22:35:53;;;;;;;0.00;0.00;;;;;;;;;;10441243;28;20059;-28
2021/08/13 22:40:56;;;;;;;0.00;0.00;;;;;;;;;;10442013;28;20052;-30
2021/08/13 22:46:00;;;;;;;0.00;0.00;;;;;;;;;;10435105;28;20037;-28
2021/08/13 22:51:03;;;;;;;0.00;0.00;;;;;;;;;;10442272;28;20052;-28
2021/08/13 22:56:06;;;;;;;0.00;0.00;;;;;;;;;;10431131;28;20060;-28
2021/08/13 23:01:10;;;;;;;0.00;0.00;;;;;;;;;;10442600;28;20041;-28
2021/08/13 23:06:13;;;;;;;0.00;0.00;;;;;;;;;;10438911;28;20056;-27
2021/08/13 23:11:16;;;;;;;0.00;0.00;;;;;;;;;;10440369;28;21035;-27
2021/08/13 23:16:20;;;;;;;0.00;0.00;;;;;;;;;;10437934;28;20040;-27
2021/08/13 23:21:23;;;;;;;0.00;0.00;;;;;;;;;;10440784;28;20075;-27
2021/08/13 23:26:26;;;;;;;0.00;0.00;;;;;;;;;;10439213;28;20061;-28
2021/08/13 23:31:30;;;;;;;0.00;0.00;;;;;;;;;;10439553;28;20560;-27
2021/08/13 23:36:32;;;;;;;0.00;0.00;;;;;;;;;;10441409;28;20056;-27
2021/08/13 23:41:37;;;;;;;0.00;0.00;;;;;;;;;;10438629;28;20593;-27
2021/08/13 23:46:41;;;;;;;0.00;0.00;;;;;;;;;;10436989;28;20486;-26
2021/08/13 23:51:45;;;;;;;0.00;0.00;;;;;;;;;;10439236;28;20418;-28
2021/08/13 23:56:48;;;;;;;0.00;0.00;;;;;;;;;;10441533;28;20040;-27
